createdAt,value
2017-12-15T00:01:04.637Z,86.46
2017-12-15T00:03:32.236Z,86.55
2017-12-15T00:05:59.799Z,86.96
2017-12-15T00:08:27.351Z,87.05
2017-12-15T00:10:54.953Z,87.48
2017-12-15T00:13:22.760Z,87.57
2017-12-15T00:15:50.313Z,86.95
2017-12-15T00:18:17.911Z,86.90
2017-12-15T00:20:45.477Z,86.71
2017-12-15T00:23:14.088Z,86.71
2017-12-15T00:25:41.673Z,86.55
2017-12-15T00:28:09.352Z,86.87
2017-12-15T00:30:36.900Z,87.06
2017-12-15T00:33:04.545Z,86.97
2017-12-15T00:35:32.087Z,86.84
2017-12-15T00:37:59.638Z,87.28
2017-12-15T00:40:27.217Z,86.74
2017-12-15T00:42:54.760Z,86.78
2017-12-15T00:45:22.326Z,87.10
2017-12-15T00:47:49.905Z,87.28
2017-12-15T00:50:17.460Z,87.16
2017-12-15T00:52:45.016Z,88.06
2017-12-15T00:55:12.750Z,88.85
2017-12-15T00:57:40.302Z,88.34
2017-12-15T01:00:07.867Z,88.04
2017-12-15T01:02:35.492Z,88.09
2017-12-15T01:05:03.113Z,88.11
2017-12-15T01:07:30.683Z,88.13
2017-12-15T01:09:58.272Z,88.40
2017-12-15T01:12:25.847Z,88.31
2017-12-15T01:14:53.438Z,88.57
2017-12-15T01:17:21.046Z,88.32
2017-12-15T01:19:48.644Z,87.71
2017-12-15T01:22:16.211Z,87.39
2017-12-15T01:24:43.788Z,87.24
2017-12-15T01:27:12.063Z,87.26
2017-12-15T01:29:39.634Z,87.25
2017-12-15T01:32:07.220Z,87.48
2017-12-15T01:34:34.907Z,88.11
2017-12-15T01:37:02.450Z,88.24
2017-12-15T01:39:30.005Z,87.79
2017-12-15T01:41:57.626Z,87.52
2017-12-15T01:44:25.173Z,87.31
2017-12-15T01:46:52.742Z,87.67
2017-12-15T01:49:20.610Z,88.25
2017-12-15T01:51:48.201Z,88.34
2017-12-15T01:54:15.776Z,88.50
2017-12-15T01:56:43.426Z,88.82
2017-12-15T01:59:11.068Z,88.85
2017-12-15T02:01:38.702Z,89.14
2017-12-15T02:04:06.351Z,88.96
2017-12-15T02:06:33.904Z,88.54
2017-12-15T02:09:01.461Z,88.52
2017-12-15T02:11:29.037Z,88.33
2017-12-15T02:13:56.586Z,88.32
2017-12-15T02:16:24.235Z,88.73
2017-12-15T02:18:51.865Z,89.15
2017-12-15T02:21:19.637Z,89.24
2017-12-15T02:23:50.121Z,89.44
2017-12-15T02:26:17.703Z,89.58
2017-12-15T02:28:45.270Z,89.52
2017-12-15T02:31:12.997Z,89.58
2017-12-15T02:33:40.569Z,89.77
2017-12-15T02:36:08.118Z,90.22
2017-12-15T02:38:35.666Z,90.40
2017-12-15T02:41:03.251Z,90.73
2017-12-15T02:43:33.741Z,90.78
2017-12-15T02:46:01.291Z,90.51
2017-12-15T02:48:28.928Z,90.50
2017-12-15T02:50:56.894Z,90.41
2017-12-15T02:53:24.884Z,89.52
2017-12-15T02:55:52.464Z,89.32
2017-12-15T02:58:20.021Z,89.19
2017-12-15T03:00:47.637Z,89.34
2017-12-15T03:03:15.200Z,89.67
2017-12-15T03:05:42.743Z,90.12
2017-12-15T03:08:10.351Z,90.37
2017-12-15T03:10:40.393Z,90.38
2017-12-15T03:13:08.019Z,90.24
2017-12-15T03:15:35.661Z,90.14
2017-12-15T03:18:03.271Z,90.10
2017-12-15T03:20:30.823Z,90.56
2017-12-15T03:22:58.399Z,90.59
2017-12-15T03:25:25.942Z,90.60
2017-12-15T03:27:53.486Z,90.80
2017-12-15T03:30:21.056Z,90.59
2017-12-15T03:32:49.194Z,90.34
2017-12-15T03:35:16.772Z,90.18
2017-12-15T03:37:44.470Z,90.50
2017-12-15T03:40:12.048Z,90.76
2017-12-15T03:42:40.527Z,90.52
2017-12-15T03:45:09.155Z,90.49
2017-12-15T03:47:36.706Z,90.14
2017-12-15T03:50:05.208Z,89.49
2017-12-15T03:52:33.813Z,88.71
2017-12-15T03:55:01.359Z,88.09
2017-12-15T03:57:44.002Z,88.17
2017-12-15T04:00:11.551Z,88.25
2017-12-15T04:02:39.148Z,87.93
2017-12-15T04:05:06.705Z,88.30
2017-12-15T04:07:35.032Z,88.46
2017-12-15T04:10:02.602Z,88.15
2017-12-15T04:12:30.165Z,87.86
2017-12-15T04:14:57.722Z,87.77
2017-12-15T04:17:25.939Z,87.97
2017-12-15T04:19:53.513Z,88.19
2017-12-15T04:22:21.062Z,88.25
2017-12-15T04:24:48.677Z,88.42
2017-12-15T04:27:16.236Z,88.41
2017-12-15T04:29:43.827Z,88.41
2017-12-15T04:32:11.439Z,88.86
2017-12-15T04:34:39.022Z,89.23
2017-12-15T04:37:06.618Z,89.57
2017-12-15T04:39:34.218Z,89.96
2017-12-15T04:42:01.754Z,89.99
2017-12-15T04:44:29.326Z,89.97
2017-12-15T04:46:56.911Z,89.76
2017-12-15T04:49:27.542Z,89.55
2017-12-15T04:51:55.099Z,89.70
2017-12-15T04:54:22.700Z,89.95
2017-12-15T04:56:50.295Z,89.89
2017-12-15T04:59:17.855Z,89.93
2017-12-15T05:01:45.479Z,89.79
2017-12-15T05:04:13.046Z,89.74
2017-12-15T05:06:40.617Z,89.71
2017-12-15T05:09:08.206Z,89.87
2017-12-15T05:11:35.780Z,89.96
2017-12-15T05:14:03.360Z,89.74
2017-12-15T05:16:30.977Z,90.11
2017-12-15T05:19:00.130Z,89.00
2017-12-15T05:21:32.039Z,88.69
2017-12-15T05:24:00.448Z,88.67
2017-12-15T05:26:28.596Z,88.35
2017-12-15T05:28:56.278Z,88.38
2017-12-15T05:31:23.841Z,88.39
2017-12-15T05:33:51.383Z,88.63
2017-12-15T05:36:18.973Z,89.04
2017-12-15T05:38:46.568Z,88.50
2017-12-15T05:41:14.210Z,88.05
2017-12-15T05:43:41.774Z,87.59
2017-12-15T05:46:09.321Z,87.83
2017-12-15T05:48:36.898Z,88.11
2017-12-15T05:51:04.479Z,88.46
2017-12-15T05:53:32.036Z,88.88
2017-12-15T05:55:59.579Z,89.14
2017-12-15T05:58:27.162Z,89.75
2017-12-15T06:00:54.721Z,90.23
2017-12-15T06:03:22.421Z,90.45
2017-12-15T06:05:50.020Z,90.84
2017-12-15T06:08:17.575Z,91.22
2017-12-15T06:10:45.127Z,91.44
2017-12-15T06:13:13.256Z,91.72
2017-12-15T06:15:40.793Z,92.03
2017-12-15T06:18:08.337Z,92.37
2017-12-15T06:20:35.870Z,92.59
2017-12-15T06:23:03.417Z,92.72
2017-12-15T06:25:30.951Z,92.53
2017-12-15T06:27:58.535Z,92.12
2017-12-15T06:30:26.109Z,92.22
2017-12-15T06:32:53.653Z,92.65
2017-12-15T06:35:21.228Z,92.36
2017-12-15T06:37:48.789Z,92.28
2017-12-15T06:40:16.344Z,92.45
2017-12-15T06:42:44.582Z,91.91
2017-12-15T06:45:13.105Z,90.94
2017-12-15T06:47:41.053Z,91.12
2017-12-15T06:50:08.645Z,90.77
2017-12-15T06:52:38.282Z,90.96
2017-12-15T06:55:06.096Z,90.72
2017-12-15T06:57:33.932Z,91.13
2017-12-15T07:00:01.492Z,91.20
2017-12-15T07:02:29.064Z,90.84
2017-12-15T07:04:56.622Z,90.00
2017-12-15T07:07:24.748Z,90.08
2017-12-15T07:09:52.323Z,90.16
2017-12-15T07:12:20.276Z,88.82
2017-12-15T07:14:47.831Z,88.43
2017-12-15T07:17:15.431Z,88.30
2017-12-15T07:19:43.238Z,87.48
2017-12-15T07:22:11.266Z,87.27
2017-12-15T07:24:39.524Z,86.08
2017-12-15T07:27:07.218Z,85.65
2017-12-15T07:29:35.971Z,83.52
2017-12-15T07:32:03.604Z,81.93
2017-12-15T07:34:31.396Z,84.39
2017-12-15T07:36:59.019Z,84.72
2017-12-15T07:39:26.555Z,82.67
2017-12-15T07:41:54.115Z,83.51
2017-12-15T07:44:21.680Z,82.93
2017-12-15T07:46:50.191Z,81.35
2017-12-15T07:49:18.405Z,80.33
2017-12-15T07:51:46.049Z,77.93
2017-12-15T07:54:13.661Z,77.62
2017-12-15T07:56:41.209Z,77.81
2017-12-15T07:59:08.742Z,76.29
2017-12-15T08:01:36.436Z,75.53
2017-12-15T08:04:04.014Z,76.51
2017-12-15T08:06:31.586Z,78.73
2017-12-15T08:08:59.203Z,76.08
2017-12-15T08:11:27.616Z,75.57
2017-12-15T08:13:55.144Z,75.86
2017-12-15T08:16:23.271Z,76.20
2017-12-15T08:18:50.850Z,76.14
2017-12-15T08:21:19.118Z,75.55
2017-12-15T08:23:46.712Z,76.58
2017-12-15T08:26:14.481Z,76.26
2017-12-15T08:28:42.024Z,74.54
2017-12-15T08:31:10.087Z,76.52
2017-12-15T08:33:37.697Z,76.82
2017-12-15T08:36:05.390Z,75.13
2017-12-15T08:38:32.988Z,76.29
2017-12-15T08:41:00.536Z,77.40
2017-12-15T08:43:28.099Z,75.30
2017-12-15T08:45:55.701Z,75.51
2017-12-15T08:48:23.298Z,75.24
2017-12-15T08:50:50.843Z,75.74
2017-12-15T08:53:18.516Z,75.86
2017-12-15T08:55:46.068Z,75.22
2017-12-15T08:58:13.636Z,75.98
2017-12-15T09:00:41.223Z,75.19
2017-12-15T09:03:08.955Z,75.44
2017-12-15T09:05:37.416Z,75.31
2017-12-15T09:08:05.132Z,75.49
2017-12-15T09:10:32.690Z,74.84
2017-12-15T09:13:00.277Z,75.67
2017-12-15T09:15:27.844Z,75.67
2017-12-15T09:17:55.479Z,76.07
2017-12-15T09:20:23.053Z,75.40
2017-12-15T09:22:50.621Z,75.88
2017-12-15T09:25:18.166Z,76.29
2017-12-15T09:27:45.746Z,76.00
2017-12-15T09:30:13.343Z,75.90
2017-12-15T09:32:40.971Z,76.44
2017-12-15T09:35:08.549Z,76.51
2017-12-15T09:37:36.371Z,76.03
2017-12-15T09:40:03.936Z,75.00
2017-12-15T09:42:31.746Z,76.10
2017-12-15T09:44:59.316Z,73.90
2017-12-15T09:47:27.240Z,74.67
2017-12-15T09:49:54.800Z,74.08
2017-12-15T09:52:23.441Z,74.08
2017-12-15T09:54:51.040Z,73.54
2017-12-15T09:57:18.854Z,72.43
2017-12-15T09:59:46.527Z,73.42
2017-12-15T10:02:14.245Z,73.58
2017-12-15T10:04:41.789Z,74.41
2017-12-15T10:07:09.654Z,74.56
2017-12-15T10:09:37.257Z,73.95
2017-12-15T10:12:04.827Z,74.03
2017-12-15T10:14:32.367Z,74.64
2017-12-15T10:16:59.925Z,74.84
2017-12-15T10:19:27.796Z,75.11
2017-12-15T10:21:56.469Z,75.65
2017-12-15T10:24:24.430Z,76.40
2017-12-15T10:26:51.997Z,76.68
2017-12-15T10:29:20.027Z,76.57
2017-12-15T10:31:47.555Z,76.77
2017-12-15T10:34:15.440Z,77.03
2017-12-15T10:36:42.992Z,76.86
2017-12-15T10:39:10.704Z,76.68
2017-12-15T10:41:38.283Z,76.73
2017-12-15T10:44:05.811Z,75.51
2017-12-15T10:46:33.385Z,76.24
2017-12-15T10:49:00.935Z,76.68
2017-12-15T10:51:28.488Z,75.95
2017-12-15T10:53:56.045Z,75.75
2017-12-15T10:56:23.589Z,75.64
2017-12-15T10:58:51.130Z,75.75
2017-12-15T11:01:18.848Z,75.89
2017-12-15T11:03:46.905Z,75.34
2017-12-15T11:06:14.474Z,75.35
2017-12-15T11:08:42.359Z,76.09
2017-12-15T11:11:09.994Z,75.83
2017-12-15T11:13:38.596Z,76.70
2017-12-15T11:16:06.169Z,76.63
2017-12-15T11:18:33.710Z,77.12
2017-12-15T11:21:01.248Z,76.27
2017-12-15T11:23:28.896Z,75.91
2017-12-15T11:25:56.436Z,76.00
2017-12-15T11:28:23.998Z,75.34
2017-12-15T11:30:52.301Z,75.13
2017-12-15T11:33:20.140Z,74.46
2017-12-15T11:35:47.709Z,74.00
2017-12-15T11:38:15.291Z,73.76
2017-12-15T11:40:43.747Z,73.47
2017-12-15T11:43:11.361Z,73.38
2017-12-15T11:45:38.978Z,73.44
2017-12-15T11:48:08.469Z,73.29
2017-12-15T11:50:36.125Z,73.45
2017-12-15T11:53:03.717Z,73.55
2017-12-15T11:55:31.313Z,73.67
2017-12-15T11:57:58.861Z,73.85
2017-12-15T12:00:26.441Z,73.90
2017-12-15T12:02:54.006Z,73.70
2017-12-15T12:05:21.574Z,73.72
2017-12-15T12:07:49.134Z,73.75
2017-12-15T12:10:16.682Z,74.32
2017-12-15T12:12:44.233Z,74.60
2017-12-15T12:15:12.363Z,74.64
2017-12-15T12:17:39.993Z,74.83
2017-12-15T12:20:07.569Z,73.16
2017-12-15T12:22:35.121Z,72.16
2017-12-15T12:25:02.680Z,71.82
2017-12-15T12:27:30.270Z,72.92
2017-12-15T12:29:57.841Z,73.12
2017-12-15T12:32:25.414Z,73.22
2017-12-15T12:34:52.983Z,73.03
2017-12-15T12:37:20.587Z,72.93
2017-12-15T12:39:48.113Z,72.82
2017-12-15T12:42:15.651Z,73.18
2017-12-15T12:44:43.226Z,71.90
2017-12-15T12:47:11.504Z,73.04
2017-12-15T12:49:39.104Z,72.46
2017-12-15T12:52:07.625Z,72.39
2017-12-15T12:54:35.164Z,72.71
2017-12-15T12:57:02.734Z,72.60
2017-12-15T12:59:30.321Z,73.22
2017-12-15T13:01:57.856Z,72.92
2017-12-15T13:04:25.445Z,72.39
2017-12-15T13:06:53.023Z,72.71
2017-12-15T13:09:21.057Z,73.07
2017-12-15T13:11:48.734Z,72.69
2017-12-15T13:14:16.407Z,71.81
2017-12-15T13:16:43.955Z,72.79
2017-12-15T13:22:02.604Z,73.45
2017-12-15T13:24:30.148Z,74.52
2017-12-15T13:26:57.700Z,74.01
2017-12-15T13:29:25.366Z,74.20
2017-12-15T13:31:52.934Z,73.80
2017-12-15T13:34:20.473Z,73.97
2017-12-15T13:36:48.077Z,74.24
2017-12-15T13:39:15.620Z,74.07
2017-12-15T13:41:43.159Z,74.23
2017-12-15T13:44:10.793Z,74.94
2017-12-15T13:46:38.365Z,74.01
2017-12-15T13:49:06.069Z,73.67
2017-12-15T13:51:33.655Z,74.00
2017-12-15T13:54:01.205Z,73.82
2017-12-15T13:56:28.751Z,74.12
2017-12-15T13:58:56.364Z,74.35
2017-12-15T14:01:25.824Z,74.63
2017-12-15T14:03:53.360Z,75.26
2017-12-15T14:06:20.910Z,75.70
2017-12-15T14:08:48.484Z,75.87
2017-12-15T14:11:16.058Z,76.19
2017-12-15T14:13:43.602Z,76.49
2017-12-15T14:16:11.201Z,76.47
2017-12-15T14:18:38.751Z,76.28
2017-12-15T14:21:06.382Z,76.97
2017-12-15T14:23:33.991Z,77.10
2017-12-15T14:26:01.541Z,76.56
2017-12-15T14:28:29.098Z,76.38
2017-12-15T14:30:56.669Z,76.45
2017-12-15T14:33:24.222Z,76.45
2017-12-15T14:35:51.823Z,76.59
2017-12-15T14:38:19.395Z,76.67
2017-12-15T14:40:46.942Z,76.76
2017-12-15T14:43:14.876Z,76.92
2017-12-15T14:45:42.447Z,77.01
2017-12-15T14:48:09.992Z,76.76
2017-12-15T14:50:37.541Z,76.62
2017-12-15T14:53:05.211Z,76.58
2017-12-15T14:55:33.253Z,76.42
2017-12-15T14:58:00.828Z,76.05
2017-12-15T15:00:28.425Z,76.41
2017-12-15T15:02:55.966Z,76.67
2017-12-15T15:05:23.915Z,76.56
2017-12-15T15:07:51.895Z,76.44
2017-12-15T15:10:19.424Z,76.56
2017-12-15T15:12:47.635Z,76.57
2017-12-15T15:15:16.024Z,76.34
2017-12-15T15:17:44.889Z,76.47
2017-12-15T15:20:12.583Z,76.58
2017-12-15T15:22:40.195Z,76.54
2017-12-15T15:25:07.900Z,76.83
2017-12-15T15:27:35.826Z,77.31
2017-12-15T15:30:03.377Z,77.53
2017-12-15T15:32:30.924Z,77.13
2017-12-15T15:37:49.947Z,78.54
2017-12-15T15:40:17.504Z,78.49
2017-12-15T15:42:45.094Z,78.86
2017-12-15T15:45:12.924Z,78.23
2017-12-15T15:47:40.467Z,77.96
2017-12-15T15:50:08.061Z,78.28
2017-12-15T15:52:37.634Z,77.61
2017-12-15T15:55:05.198Z,77.24
2017-12-15T15:57:33.451Z,78.18
2017-12-15T16:00:02.229Z,78.17
2017-12-15T16:02:29.845Z,78.64
2017-12-15T16:04:57.390Z,79.02
2017-12-15T16:07:25.739Z,79.03
2017-12-15T16:09:53.352Z,78.93
2017-12-15T16:12:20.915Z,79.14
2017-12-15T16:14:48.512Z,78.66
2017-12-15T16:17:16.072Z,78.65
2017-12-15T16:19:43.626Z,78.57
2017-12-15T16:22:11.204Z,78.34
2017-12-15T16:24:38.796Z,78.34
2017-12-15T16:27:06.464Z,78.74
2017-12-15T16:29:34.052Z,78.39
2017-12-15T16:32:01.629Z,78.07
2017-12-15T16:34:29.189Z,78.06
2017-12-15T16:36:56.772Z,78.34
2017-12-15T16:39:24.337Z,79.45
2017-12-15T16:41:51.902Z,81.11
2017-12-15T16:44:19.484Z,81.39
2017-12-15T16:46:47.036Z,81.12
2017-12-15T16:49:14.631Z,81.15
2017-12-15T16:51:42.194Z,81.35
2017-12-15T16:54:09.844Z,81.26
2017-12-15T16:56:37.404Z,81.60
2017-12-15T16:59:04.984Z,82.67
2017-12-15T17:01:32.541Z,82.60
2017-12-15T17:04:00.143Z,82.54
2017-12-15T17:09:18.026Z,83.07
2017-12-15T17:11:45.606Z,83.00
2017-12-15T17:14:13.161Z,83.03
2017-12-15T17:16:40.744Z,82.88
2017-12-15T17:19:27.825Z,82.54
2017-12-15T17:21:55.422Z,82.42
2017-12-15T17:24:22.971Z,82.78
2017-12-15T17:26:50.536Z,83.31
2017-12-15T17:29:18.230Z,83.51
2017-12-15T17:31:45.780Z,83.43
2017-12-15T17:34:13.349Z,83.48
2017-12-15T17:36:41.216Z,83.70
2017-12-15T17:39:08.932Z,83.91
2017-12-15T17:41:37.374Z,84.45
2017-12-15T17:44:04.996Z,85.26
2017-12-15T17:46:32.556Z,85.32
2017-12-15T17:49:00.168Z,85.30
2017-12-15T17:51:27.833Z,85.32
2017-12-15T17:53:55.411Z,86.34
2017-12-15T17:56:23.615Z,86.18
2017-12-15T17:58:51.224Z,86.29
2017-12-15T18:01:18.768Z,86.01
2017-12-15T18:03:46.309Z,85.46
2017-12-15T18:06:13.932Z,85.22
2017-12-15T18:08:41.539Z,85.21
2017-12-15T18:11:09.629Z,85.43
2017-12-15T18:13:37.243Z,85.03
2017-12-15T18:16:04.805Z,84.84
2017-12-15T18:18:32.376Z,85.15
2017-12-15T18:20:59.952Z,85.19
2017-12-15T18:23:28.305Z,85.70
2017-12-15T18:25:55.864Z,85.84
2017-12-15T18:28:23.426Z,86.34
2017-12-15T18:30:51.015Z,86.82
2017-12-15T18:33:18.905Z,86.52
2017-12-15T18:35:46.464Z,85.87
2017-12-15T18:38:14.057Z,86.17
2017-12-15T18:40:41.601Z,86.65
2017-12-15T18:43:09.625Z,86.64
2017-12-15T18:45:37.296Z,86.64
2017-12-15T18:48:04.913Z,86.22
2017-12-15T18:50:32.430Z,85.81
2017-12-15T18:53:00.406Z,85.65
2017-12-15T18:55:27.972Z,85.62
2017-12-15T18:57:55.537Z,85.93
2017-12-15T19:00:23.181Z,85.77
2017-12-15T19:02:50.773Z,85.93
2017-12-15T19:05:18.550Z,86.02
2017-12-15T19:07:46.119Z,86.03
2017-12-15T19:10:13.681Z,85.95
2017-12-15T19:12:41.605Z,86.11
2017-12-15T19:15:09.584Z,86.91
2017-12-15T19:17:37.337Z,87.21
2017-12-15T19:20:04.895Z,87.26
2017-12-15T19:22:32.485Z,87.19
2017-12-15T19:25:00.042Z,87.20
2017-12-15T19:27:27.652Z,87.42
2017-12-15T19:29:55.258Z,88.04
2017-12-15T19:32:22.821Z,87.66
2017-12-15T19:34:50.382Z,87.39
2017-12-15T19:37:18.028Z,87.42
2017-12-15T19:39:45.611Z,87.43
2017-12-15T19:42:14.221Z,87.45
2017-12-15T19:44:41.796Z,86.88
2017-12-15T19:47:09.396Z,86.56
2017-12-15T19:49:36.962Z,87.66
2017-12-15T19:52:04.603Z,87.82
2017-12-15T19:54:32.183Z,87.56
2017-12-15T19:57:01.615Z,87.52
2017-12-15T19:59:29.214Z,87.79
2017-12-15T20:01:56.793Z,87.48
2017-12-15T20:04:24.929Z,87.29
2017-12-15T20:06:52.553Z,87.18
2017-12-15T20:09:20.110Z,87.37
2017-12-15T20:11:47.670Z,87.34
2017-12-15T20:14:15.242Z,87.11
2017-12-15T20:16:42.804Z,86.58
2017-12-15T20:19:10.583Z,86.31
2017-12-15T20:21:38.153Z,86.47
2017-12-15T20:24:05.738Z,86.76
2017-12-15T20:26:33.285Z,86.93
2017-12-15T20:29:00.865Z,87.33
2017-12-15T20:31:29.085Z,87.55
2017-12-15T20:33:56.651Z,87.21
2017-12-15T20:36:24.213Z,87.50
2017-12-15T20:38:51.784Z,87.69
2017-12-15T20:41:19.329Z,87.79
2017-12-15T20:43:46.879Z,87.75
2017-12-15T20:46:14.470Z,88.19
2017-12-15T20:48:42.061Z,88.68
2017-12-15T20:51:10.014Z,88.60
2017-12-15T20:53:37.627Z,88.79
2017-12-15T20:56:05.189Z,88.74
2017-12-15T20:58:32.761Z,88.61
2017-12-15T21:01:00.374Z,88.57
2017-12-15T21:03:28.016Z,88.30
2017-12-15T21:05:55.684Z,88.29
2017-12-15T21:08:23.238Z,87.62
2017-12-15T21:10:50.795Z,87.59
2017-12-15T21:13:18.387Z,87.46
2017-12-15T21:15:45.933Z,87.78
2017-12-15T21:18:13.486Z,87.65
2017-12-15T21:20:41.068Z,87.29
2017-12-15T21:23:08.791Z,87.31
2017-12-15T21:25:36.398Z,87.43
2017-12-15T21:28:03.970Z,87.02
2017-12-15T21:30:32.023Z,86.96
2017-12-15T21:32:59.605Z,86.75
2017-12-15T21:35:27.197Z,86.70
2017-12-15T21:37:54.776Z,85.19
2017-12-15T21:40:22.468Z,84.91
2017-12-15T21:42:50.062Z,85.33
2017-12-15T21:45:17.612Z,86.45
2017-12-15T21:47:45.150Z,86.54
2017-12-15T21:50:12.751Z,86.33
2017-12-15T21:52:40.318Z,85.75
2017-12-15T21:55:07.881Z,85.92
2017-12-15T21:57:36.647Z,86.84
2017-12-15T22:00:04.565Z,87.39
2017-12-15T22:02:32.130Z,87.28
2017-12-15T22:04:59.672Z,87.22
2017-12-15T22:07:27.260Z,87.42
2017-12-15T22:09:54.866Z,88.07
2017-12-15T22:12:22.404Z,88.14
2017-12-15T22:14:49.965Z,88.52
2017-12-15T22:20:08.559Z,88.64
2017-12-15T22:22:36.108Z,88.95
2017-12-15T22:25:03.665Z,88.44
2017-12-15T22:27:31.235Z,88.52
2017-12-15T22:29:58.806Z,88.47
2017-12-15T22:38:08.500Z,87.83
2017-12-15T22:40:36.062Z,88.37
2017-12-15T22:43:03.624Z,88.72
2017-12-15T22:45:31.224Z,88.61
2017-12-15T22:47:58.818Z,88.87
2017-12-15T22:50:26.369Z,88.94
2017-12-15T22:52:53.932Z,88.79
2017-12-15T22:55:21.496Z,88.79
2017-12-15T22:57:49.077Z,89.21
2017-12-15T23:00:16.648Z,89.42
2017-12-15T23:02:44.207Z,89.57
2017-12-15T23:05:11.786Z,89.85
2017-12-15T23:07:39.339Z,89.60
2017-12-15T23:10:06.898Z,89.58
2017-12-15T23:12:34.477Z,89.54
2017-12-15T23:15:02.028Z,89.69
2017-12-15T23:17:29.574Z,89.22
2017-12-15T23:19:57.140Z,89.24
2017-12-15T23:22:24.676Z,89.33
2017-12-15T23:24:52.224Z,89.45
2017-12-15T23:27:19.790Z,89.42
2017-12-15T23:29:47.343Z,88.21
2017-12-15T23:32:14.893Z,87.67
2017-12-15T23:34:42.479Z,87.74
2017-12-15T23:37:12.190Z,87.87
2017-12-15T23:39:39.861Z,87.99
2017-12-15T23:42:07.438Z,87.96
2017-12-15T23:44:34.981Z,88.00
2017-12-15T23:47:02.549Z,88.08
2017-12-15T23:49:30.172Z,87.93
2017-12-15T23:51:57.719Z,88.03
2017-12-15T23:54:37.046Z,88.53
2017-12-15T23:57:04.711Z,88.58
2017-12-15T23:59:32.265Z,88.71
